sensor_id;sensor_type;location;lat;lon;timestamp;pressure;altitude;pressure_sealevel;temperature;humidity
82353;BME280;71954;47.430;18.920;2024-03-29T00:01:46;98996.66;;;8.00;76.97
82353;BME280;71954;47.430;18.920;2024-03-29T00:04:11;98994.84;;;8.01;76.50
82353;BME280;71954;47.430;18.920;2024-03-29T00:06:37;99001.09;;;8.00;76.27
82353;BME280;71954;47.430;18.920;2024-03-29T00:09:02;99026.56;;;8.01;76.19
82353;BME280;71954;47.430;18.920;2024-03-29T00:11:28;99019.59;;;8.00;75.72
82353;BME280;71954;47.430;18.920;2024-03-29T00:13:54;99022.69;;;8.05;75.91
82353;BME280;71954;47.430;18.920;2024-03-29T00:16:20;99024.59;;;8.03;75.58
82353;BME280;71954;47.430;18.920;2024-03-29T00:18:48;99047.19;;;8.07;74.39
82353;BME280;71954;47.430;18.920;2024-03-29T00:21:14;99040.47;;;8.03;74.44
82353;BME280;71954;47.430;18.920;2024-03-29T00:23:40;99056.31;;;8.03;74.23
82353;BME280;71954;47.430;18.920;2024-03-29T00:26:06;99054.38;;;8.05;73.53
82353;BME280;71954;47.430;18.920;2024-03-29T00:28:32;99050.38;;;8.10;73.88
82353;BME280;71954;47.430;18.920;2024-03-29T00:30:58;99066.13;;;8.12;73.75
82353;BME280;71954;47.430;18.920;2024-03-29T00:33:24;99069.44;;;8.14;73.33
82353;BME280;71954;47.430;18.920;2024-03-29T00:35:49;99073.66;;;8.16;72.97
82353;BME280;71954;47.430;18.920;2024-03-29T00:38:15;99066.28;;;8.20;75.92
82353;BME280;71954;47.430;18.920;2024-03-29T00:40:40;99068.81;;;8.22;75.48
82353;BME280;71954;47.430;18.920;2024-03-29T00:43:06;99082.63;;;8.25;75.46
82353;BME280;71954;47.430;18.920;2024-03-29T00:45:32;99088.94;;;8.34;75.79
82353;BME280;71954;47.430;18.920;2024-03-29T00:47:58;99095.50;;;8.39;75.75
82353;BME280;71954;47.430;18.920;2024-03-29T00:50:24;99105.56;;;8.45;75.18
82353;BME280;71954;47.430;18.920;2024-03-29T00:52:49;99105.31;;;8.48;75.24
82353;BME280;71954;47.430;18.920;2024-03-29T00:55:15;99108.13;;;8.56;75.18
82353;BME280;71954;47.430;18.920;2024-03-29T00:57:41;99108.31;;;8.65;74.66
82353;BME280;71954;47.430;18.920;2024-03-29T01:00:07;99114.03;;;8.70;74.02
82353;BME280;71954;47.430;18.920;2024-03-29T01:02:34;99118.34;;;8.71;74.24
82353;BME280;71954;47.430;18.920;2024-03-29T01:05:00;99116.00;;;8.68;73.76
82353;BME280;71954;47.430;18.920;2024-03-29T01:07:26;99102.03;;;8.66;74.12
82353;BME280;71954;47.430;18.920;2024-03-29T01:09:52;99108.31;;;8.65;73.82
82353;BME280;71954;47.430;18.920;2024-03-29T01:12:17;99110.06;;;8.54;73.93
82353;BME280;71954;47.430;18.920;2024-03-29T01:14:44;99118.69;;;8.56;74.21
82353;BME280;71954;47.430;18.920;2024-03-29T01:17:10;99129.78;;;8.50;73.92
82353;BME280;71954;47.430;18.920;2024-03-29T01:19:37;99132.53;;;8.39;73.71
82353;BME280;71954;47.430;18.920;2024-03-29T01:22:03;99141.41;;;8.38;73.55
82353;BME280;71954;47.430;18.920;2024-03-29T01:24:29;99146.97;;;8.35;73.26
82353;BME280;71954;47.430;18.920;2024-03-29T01:26:55;99146.75;;;8.27;73.75
82353;BME280;71954;47.430;18.920;2024-03-29T01:29:22;99138.13;;;8.25;73.24
82353;BME280;71954;47.430;18.920;2024-03-29T01:31:48;99134.03;;;8.21;73.52
82353;BME280;71954;47.430;18.920;2024-03-29T01:34:13;99132.88;;;8.14;72.85
82353;BME280;71954;47.430;18.920;2024-03-29T01:36:39;99142.31;;;8.07;73.65
82353;BME280;71954;47.430;18.920;2024-03-29T01:39:04;99140.88;;;8.03;73.89
82353;BME280;71954;47.430;18.920;2024-03-29T01:41:30;99146.16;;;8.03;73.11
82353;BME280;71954;47.430;18.920;2024-03-29T01:43:55;99144.22;;;8.05;73.25
82353;BME280;71954;47.430;18.920;2024-03-29T01:46:23;99153.41;;;8.01;73.34
82353;BME280;71954;47.430;18.920;2024-03-29T01:48:50;99159.19;;;7.95;73.17
82353;BME280;71954;47.430;18.920;2024-03-29T01:51:16;99158.34;;;7.94;72.63
82353;BME280;71954;47.430;18.920;2024-03-29T01:53:44;99163.34;;;7.76;72.37
82353;BME280;71954;47.430;18.920;2024-03-29T01:56:10;99168.84;;;7.73;73.72
82353;BME280;71954;47.430;18.920;2024-03-29T01:58:38;99179.41;;;7.73;73.44
82353;BME280;71954;47.430;18.920;2024-03-29T02:01:05;99179.19;;;7.76;73.24
82353;BME280;71954;47.430;18.920;2024-03-29T02:03:32;99194.19;;;7.76;72.75
82353;BME280;71954;47.430;18.920;2024-03-29T02:05:58;99193.34;;;7.75;72.97
82353;BME280;71954;47.430;18.920;2024-03-29T02:08:25;99211.00;;;7.75;72.43
82353;BME280;71954;47.430;18.920;2024-03-29T02:10:51;99219.44;;;7.69;72.91
82353;BME280;71954;47.430;18.920;2024-03-29T02:13:16;99217.16;;;7.64;73.32
82353;BME280;71954;47.430;18.920;2024-03-29T02:15:42;99226.28;;;7.60;73.19
82353;BME280;71954;47.430;18.920;2024-03-29T02:18:08;99244.75;;;7.60;73.03
82353;BME280;71954;47.430;18.920;2024-03-29T02:20:35;99250.03;;;7.60;73.09
82353;BME280;71954;47.430;18.920;2024-03-29T02:23:07;99263.63;;;7.56;72.93
82353;BME280;71954;47.430;18.920;2024-03-29T02:25:35;99262.06;;;7.42;73.31
82353;BME280;71954;47.430;18.920;2024-03-29T02:28:01;99276.47;;;7.38;73.00
82353;BME280;71954;47.430;18.920;2024-03-29T02:30:28;99286.81;;;7.41;73.11
82353;BME280;71954;47.430;18.920;2024-03-29T02:32:56;99293.75;;;7.42;72.62
82353;BME280;71954;47.430;18.920;2024-03-29T02:35:22;99295.41;;;7.43;72.50
82353;BME280;71954;47.430;18.920;2024-03-29T02:37:48;99300.47;;;7.46;72.79
82353;BME280;71954;47.430;18.920;2024-03-29T02:40:13;99309.56;;;7.42;71.45
82353;BME280;71954;47.430;18.920;2024-03-29T02:42:39;99311.63;;;7.27;72.49
82353;BME280;71954;47.430;18.920;2024-03-29T02:45:05;99319.19;;;7.21;72.27
82353;BME280;71954;47.430;18.920;2024-03-29T02:47:30;99318.91;;;7.02;72.69
82353;BME280;71954;47.430;18.920;2024-03-29T02:49:56;99326.53;;;6.82;73.58
82353;BME280;71954;47.430;18.920;2024-03-29T02:52:22;99330.34;;;6.78;73.22
82353;BME280;71954;47.430;18.920;2024-03-29T02:54:47;99340.38;;;6.62;74.10
82353;BME280;71954;47.430;18.920;2024-03-29T02:57:13;99341.03;;;6.53;74.26
82353;BME280;71954;47.430;18.920;2024-03-29T02:59:42;99342.41;;;6.35;74.61
82353;BME280;71954;47.430;18.920;2024-03-29T03:02:08;99333.56;;;6.36;74.59
82353;BME280;71954;47.430;18.920;2024-03-29T03:04:34;99341.41;;;6.25;75.14
82353;BME280;71954;47.430;18.920;2024-03-29T03:06:59;99348.44;;;6.00;75.63
82353;BME280;71954;47.430;18.920;2024-03-29T03:09:44;99352.56;;;5.79;76.75
82353;BME280;71954;47.430;18.920;2024-03-29T03:12:39;99351.22;;;5.61;77.54
82353;BME280;71954;47.430;18.920;2024-03-29T03:15:05;99359.00;;;5.62;77.73
82353;BME280;71954;47.430;18.920;2024-03-29T03:17:31;99361.56;;;5.64;78.03
82353;BME280;71954;47.430;18.920;2024-03-29T03:19:57;99366.50;;;5.68;77.57
82353;BME280;71954;47.430;18.920;2024-03-29T03:22:23;99366.38;;;5.70;77.92
82353;BME280;71954;47.430;18.920;2024-03-29T03:24:49;99371.22;;;5.76;77.36
82353;BME280;71954;47.430;18.920;2024-03-29T03:27:15;99365.63;;;5.81;76.86
82353;BME280;71954;47.430;18.920;2024-03-29T03:29:40;99370.16;;;5.91;76.42
82353;BME280;71954;47.430;18.920;2024-03-29T03:32:06;99370.34;;;6.01;76.17
82353;BME280;71954;47.430;18.920;2024-03-29T03:34:32;99370.34;;;6.01;75.93
82353;BME280;71954;47.430;18.920;2024-03-29T03:36:58;99372.66;;;6.05;76.56
82353;BME280;71954;47.430;18.920;2024-03-29T03:39:24;99382.06;;;5.84;76.87
82353;BME280;71954;47.430;18.920;2024-03-29T03:41:50;99383.22;;;5.80;77.34
82353;BME280;71954;47.430;18.920;2024-03-29T03:44:16;99380.06;;;5.62;77.55
82353;BME280;71954;47.430;18.920;2024-03-29T03:46:41;99382.84;;;5.48;78.66
82353;BME280;71954;47.430;18.920;2024-03-29T03:49:07;99380.59;;;5.55;78.64
82353;BME280;71954;47.430;18.920;2024-03-29T03:51:32;99377.34;;;5.64;77.90
82353;BME280;71954;47.430;18.920;2024-03-29T03:53:58;99378.28;;;5.76;76.93
82353;BME280;71954;47.430;18.920;2024-03-29T03:56:24;99382.78;;;5.86;76.36
82353;BME280;71954;47.430;18.920;2024-03-29T03:58:49;99389.56;;;5.90;75.36
82353;BME280;71954;47.430;18.920;2024-03-29T04:01:15;99390.59;;;6.00;76.01
82353;BME280;71954;47.430;18.920;2024-03-29T04:03:40;99391.84;;;6.07;74.94
82353;BME280;71954;47.430;18.920;2024-03-29T04:06:06;99401.81;;;6.15;74.24
82353;BME280;71954;47.430;18.920;2024-03-29T04:08:32;99405.41;;;6.14;73.77
82353;BME280;71954;47.430;18.920;2024-03-29T04:11:02;99414.19;;;6.02;73.67
82353;BME280;71954;47.430;18.920;2024-03-29T04:13:28;99413.97;;;6.05;74.01
82353;BME280;71954;47.430;18.920;2024-03-29T04:16:01;99405.88;;;5.95;73.84
82353;BME280;71954;47.430;18.920;2024-03-29T04:18:26;99419.06;;;5.95;73.87
82353;BME280;71954;47.430;18.920;2024-03-29T04:20:57;99435.06;;;5.92;73.68
82353;BME280;71954;47.430;18.920;2024-03-29T04:23:22;99439.69;;;5.76;74.71
82353;BME280;71954;47.430;18.920;2024-03-29T04:25:55;99447.25;;;5.68;75.33
82353;BME280;71954;47.430;18.920;2024-03-29T04:28:21;99449.38;;;5.63;74.71
82353;BME280;71954;47.430;18.920;2024-03-29T04:30:57;99445.78;;;5.64;75.07
82353;BME280;71954;47.430;18.920;2024-03-29T04:33:23;99454.84;;;5.60;75.59
82353;BME280;71954;47.430;18.920;2024-03-29T04:38:19;99441.56;;;5.74;75.20
82353;BME280;71954;47.430;18.920;2024-03-29T04:40:45;99448.84;;;5.83;74.64
82353;BME280;71954;47.430;18.920;2024-03-29T04:43:10;99464.13;;;5.91;73.62
82353;BME280;71954;47.430;18.920;2024-03-29T04:45:36;99475.06;;;5.97;73.85
82353;BME280;71954;47.430;18.920;2024-03-29T04:48:01;99473.94;;;6.01;74.06
82353;BME280;71954;47.430;18.920;2024-03-29T04:50:27;99474.44;;;5.81;74.43
82353;BME280;71954;47.430;18.920;2024-03-29T04:52:52;99475.25;;;5.56;74.30
82353;BME280;71954;47.430;18.920;2024-03-29T04:55:18;99482.44;;;5.54;74.72
82353;BME280;71954;47.430;18.920;2024-03-29T04:57:44;99491.56;;;5.61;74.95
82353;BME280;71954;47.430;18.920;2024-03-29T05:00:10;99488.13;;;5.48;75.10
82353;BME280;71954;47.430;18.920;2024-03-29T05:02:36;99494.94;;;5.51;75.40
82353;BME280;71954;47.430;18.920;2024-03-29T05:05:03;99494.63;;;5.55;75.17
82353;BME280;71954;47.430;18.920;2024-03-29T05:07:28;99498.00;;;5.57;75.39
82353;BME280;71954;47.430;18.920;2024-03-29T05:09:54;99507.81;;;5.68;75.48
82353;BME280;71954;47.430;18.920;2024-03-29T05:12:21;99506.03;;;5.81;75.28
82353;BME280;71954;47.430;18.920;2024-03-29T05:14:46;99497.09;;;5.84;74.26
82353;BME280;71954;47.430;18.920;2024-03-29T05:17:15;99511.91;;;5.85;74.17
82353;BME280;71954;47.430;18.920;2024-03-29T05:19:40;99502.81;;;5.90;74.17
82353;BME280;71954;47.430;18.920;2024-03-29T05:22:06;99501.41;;;5.97;73.75
82353;BME280;71954;47.430;18.920;2024-03-29T05:24:32;99498.47;;;6.02;74.85
82353;BME280;71954;47.430;18.920;2024-03-29T05:26:57;99503.53;;;6.05;74.24
82353;BME280;71954;47.430;18.920;2024-03-29T05:29:23;99503.09;;;6.11;74.02
82353;BME280;71954;47.430;18.920;2024-03-29T05:31:48;99504.34;;;6.18;73.84
82353;BME280;71954;47.430;18.920;2024-03-29T05:34:14;99510.91;;;6.12;73.30
82353;BME280;71954;47.430;18.920;2024-03-29T05:36:40;99521.88;;;6.06;74.32
82353;BME280;71954;47.430;18.920;2024-03-29T05:39:06;99521.78;;;6.08;74.47
82353;BME280;71954;47.430;18.920;2024-03-29T05:41:31;99522.19;;;6.15;74.93
82353;BME280;71954;47.430;18.920;2024-03-29T05:44:00;99524.16;;;6.24;75.53
82353;BME280;71954;47.430;18.920;2024-03-29T05:46:26;99530.31;;;6.61;73.85
82353;BME280;71954;47.430;18.920;2024-03-29T05:48:51;99528.06;;;7.62;74.61
82353;BME280;71954;47.430;18.920;2024-03-29T05:51:17;99524.06;;;8.81;69.81
82353;BME280;71954;47.430;18.920;2024-03-29T05:53:43;99516.81;;;9.99;66.17
82353;BME280;71954;47.430;18.920;2024-03-29T05:56:08;99521.84;;;11.13;64.75
82353;BME280;71954;47.430;18.920;2024-03-29T05:58:34;99524.88;;;12.14;59.62
82353;BME280;71954;47.430;18.920;2024-03-29T06:00:59;99532.31;;;13.02;58.27
82353;BME280;71954;47.430;18.920;2024-03-29T06:03:25;99522.97;;;13.86;55.85
82353;BME280;71954;47.430;18.920;2024-03-29T06:05:51;99523.00;;;14.72;55.04
82353;BME280;71954;47.430;18.920;2024-03-29T06:08:16;99529.53;;;15.36;52.33
82353;BME280;71954;47.430;18.920;2024-03-29T06:10:42;99527.75;;;15.85;50.88
82353;BME280;71954;47.430;18.920;2024-03-29T06:13:08;99532.59;;;15.98;48.79
82353;BME280;71954;47.430;18.920;2024-03-29T06:15:43;99533.59;;;16.05;49.01
82353;BME280;71954;47.430;18.920;2024-03-29T06:18:27;99529.88;;;16.30;48.12
82353;BME280;71954;47.430;18.920;2024-03-29T06:20:53;99532.22;;;16.33;50.17
82353;BME280;71954;47.430;18.920;2024-03-29T06:23:18;99530.38;;;16.17;49.28
82353;BME280;71954;47.430;18.920;2024-03-29T06:25:44;99519.34;;;16.20;48.66
82353;BME280;71954;47.430;18.920;2024-03-29T06:28:11;99531.75;;;15.57;50.06
82353;BME280;71954;47.430;18.920;2024-03-29T06:30:36;99531.25;;;15.53;50.44
82353;BME280;71954;47.430;18.920;2024-03-29T06:33:02;99548.59;;;15.41;51.60
82353;BME280;71954;47.430;18.920;2024-03-29T06:35:29;99554.59;;;15.35;50.75
82353;BME280;71954;47.430;18.920;2024-03-29T06:37:56;99560.03;;;15.09;51.64
82353;BME280;71954;47.430;18.920;2024-03-29T06:40:22;99552.00;;;14.33;53.73
82353;BME280;71954;47.430;18.920;2024-03-29T06:42:47;99555.44;;;14.25;53.90
82353;BME280;71954;47.430;18.920;2024-03-29T06:45:13;99555.75;;;13.97;55.66
82353;BME280;71954;47.430;18.920;2024-03-29T06:47:39;99549.84;;;13.93;55.78
82353;BME280;71954;47.430;18.920;2024-03-29T06:50:05;99552.31;;;13.86;55.85
82353;BME280;71954;47.430;18.920;2024-03-29T06:52:30;99552.66;;;12.76;56.69
82353;BME280;71954;47.430;18.920;2024-03-29T06:54:56;99553.94;;;12.99;58.30
82353;BME280;71954;47.430;18.920;2024-03-29T06:57:22;99562.53;;;12.66;58.89
82353;BME280;71954;47.430;18.920;2024-03-29T06:59:51;99563.13;;;12.03;60.94
82353;BME280;71954;47.430;18.920;2024-03-29T07:02:17;99566.03;;;12.19;62.09
82353;BME280;71954;47.430;18.920;2024-03-29T07:04:42;99568.00;;;12.08;60.40
82353;BME280;71954;47.430;18.920;2024-03-29T07:07:08;99581.97;;;11.23;62.75
82353;BME280;71954;47.430;18.920;2024-03-29T07:09:33;99589.25;;;11.31;64.00
82353;BME280;71954;47.430;18.920;2024-03-29T07:11:59;99585.50;;;11.53;63.03
82353;BME280;71954;47.430;18.920;2024-03-29T07:14:24;99578.63;;;11.40;64.10
82353;BME280;71954;47.430;18.920;2024-03-29T07:16:52;99589.84;;;11.44;63.72
82353;BME280;71954;47.430;18.920;2024-03-29T07:19:18;99594.28;;;11.34;63.97
82353;BME280;71954;47.430;18.920;2024-03-29T07:21:47;99591.75;;;11.23;64.58
82353;BME280;71954;47.430;18.920;2024-03-29T07:24:13;99598.19;;;11.30;63.84
82353;BME280;71954;47.430;18.920;2024-03-29T07:26:39;99605.91;;;11.33;64.13
82353;BME280;71954;47.430;18.920;2024-03-29T07:29:06;99604.91;;;11.15;64.12
82353;BME280;71954;47.430;18.920;2024-03-29T07:31:35;99602.50;;;11.21;64.50
82353;BME280;71954;47.430;18.920;2024-03-29T07:34:01;99598.44;;;11.08;63.41
82353;BME280;71954;47.430;18.920;2024-03-29T07:36:27;99596.47;;;11.10;63.61
82353;BME280;71954;47.430;18.920;2024-03-29T07:38:58;99598.75;;;11.33;63.51
82353;BME280;71954;47.430;18.920;2024-03-29T07:41:24;99604.09;;;11.53;62.96
82353;BME280;71954;47.430;18.920;2024-03-29T07:43:55;99601.03;;;11.67;62.86
82353;BME280;71954;47.430;18.920;2024-03-29T07:46:22;99601.34;;;11.83;62.52
82353;BME280;71954;47.430;18.920;2024-03-29T07:48:51;99599.13;;;11.78;61.19
82353;BME280;71954;47.430;18.920;2024-03-29T07:51:17;99601.34;;;11.93;61.24
82353;BME280;71954;47.430;18.920;2024-03-29T07:53:42;99601.31;;;12.12;61.84
82353;BME280;71954;47.430;18.920;2024-03-29T07:56:08;99601.63;;;12.09;61.02
82353;BME280;71954;47.430;18.920;2024-03-29T07:58:34;99596.84;;;12.03;60.11
82353;BME280;71954;47.430;18.920;2024-03-29T08:01:00;99598.41;;;11.96;60.77
82353;BME280;71954;47.430;18.920;2024-03-29T08:03:25;99603.97;;;12.12;59.71
82353;BME280;71954;47.430;18.920;2024-03-29T08:05:59;99611.69;;;12.15;60.93
82353;BME280;71954;47.430;18.920;2024-03-29T08:08:26;99613.09;;;12.00;58.84
82353;BME280;71954;47.430;18.920;2024-03-29T08:10:53;99611.38;;;12.18;60.81
82353;BME280;71954;47.430;18.920;2024-03-29T08:13:18;99613.88;;;12.39;59.14
82353;BME280;71954;47.430;18.920;2024-03-29T08:15:46;99602.78;;;12.53;60.31
82353;BME280;71954;47.430;18.920;2024-03-29T08:18:12;99594.47;;;12.66;59.36
82353;BME280;71954;47.430;18.920;2024-03-29T08:20:37;99611.63;;;12.81;58.66
82353;BME280;71954;47.430;18.920;2024-03-29T08:23:03;99609.81;;;12.81;55.51
82353;BME280;71954;47.430;18.920;2024-03-29T08:25:29;99599.41;;;12.88;56.25
82353;BME280;71954;47.430;18.920;2024-03-29T08:27:55;99604.94;;;13.04;57.58
82353;BME280;71954;47.430;18.920;2024-03-29T08:30:27;99606.91;;;13.02;56.67
82353;BME280;71954;47.430;18.920;2024-03-29T08:32:57;99606.81;;;12.94;55.90
82353;BME280;71954;47.430;18.920;2024-03-29T08:35:25;99598.25;;;13.00;56.26
82353;BME280;71954;47.430;18.920;2024-03-29T08:37:50;99585.31;;;13.05;56.20
82353;BME280;71954;47.430;18.920;2024-03-29T08:40:16;99591.03;;;13.10;56.14
82353;BME280;71954;47.430;18.920;2024-03-29T08:42:41;99599.84;;;13.11;55.63
82353;BME280;71954;47.430;18.920;2024-03-29T08:45:07;99596.03;;;13.23;56.00
82353;BME280;71954;47.430;18.920;2024-03-29T08:47:34;99584.41;;;13.24;55.59
82353;BME280;71954;47.430;18.920;2024-03-29T08:49:59;99586.00;;;13.34;54.83
82353;BME280;71954;47.430;18.920;2024-03-29T08:52:25;99599.41;;;13.42;54.27
82353;BME280;71954;47.430;18.920;2024-03-29T08:54:51;99598.97;;;13.65;54.10
82353;BME280;71954;47.430;18.920;2024-03-29T08:57:17;99598.75;;;13.76;53.70
82353;BME280;71954;47.430;18.920;2024-03-29T08:59:42;99598.28;;;13.63;53.81
82353;BME280;71954;47.430;18.920;2024-03-29T09:02:08;99600.03;;;13.72;54.17
82353;BME280;71954;47.430;18.920;2024-03-29T09:04:34;99594.09;;;13.78;54.32
82353;BME280;71954;47.430;18.920;2024-03-29T09:07:00;99577.38;;;13.94;53.78
82353;BME280;71954;47.430;18.920;2024-03-29T09:09:28;99582.31;;;14.06;52.98
82353;BME280;71954;47.430;18.920;2024-03-29T09:11:54;99582.78;;;14.02;53.44
82353;BME280;71954;47.430;18.920;2024-03-29T09:14:20;99583.63;;;14.02;52.11
82353;BME280;71954;47.430;18.920;2024-03-29T09:16:46;99563.91;;;13.95;52.10
82353;BME280;71954;47.430;18.920;2024-03-29T09:19:14;99572.03;;;13.94;51.38
82353;BME280;71954;47.430;18.920;2024-03-29T09:21:40;99566.31;;;14.06;51.88
82353;BME280;71954;47.430;18.920;2024-03-29T09:24:06;99574.50;;;14.31;51.91
82353;BME280;71954;47.430;18.920;2024-03-29T09:26:32;99577.81;;;14.50;51.03
82353;BME280;71954;47.430;18.920;2024-03-29T09:28:58;99589.22;;;14.60;50.30
82353;BME280;71954;47.430;18.920;2024-03-29T09:31:24;99575.66;;;14.54;50.87
82353;BME280;71954;47.430;18.920;2024-03-29T09:33:49;99569.44;;;14.45;50.70
82353;BME280;71954;47.430;18.920;2024-03-29T09:36:21;99572.91;;;14.38;51.33
82353;BME280;71954;47.430;18.920;2024-03-29T09:38:50;99571.81;;;14.31;51.76
82353;BME280;71954;47.430;18.920;2024-03-29T09:41:19;99556.16;;;14.36;51.97
82353;BME280;71954;47.430;18.920;2024-03-29T09:43:46;99548.75;;;14.47;51.49
82353;BME280;71954;47.430;18.920;2024-03-29T09:46:16;99550.34;;;14.58;50.82
82353;BME280;71954;47.430;18.920;2024-03-29T09:48:44;99556.22;;;14.70;51.11
82353;BME280;71954;47.430;18.920;2024-03-29T09:51:12;99559.41;;;14.73;50.89
82353;BME280;71954;47.430;18.920;2024-03-29T09:53:45;99555.41;;;14.77;51.39
82353;BME280;71954;47.430;18.920;2024-03-29T09:56:11;99550.19;;;14.68;51.99
82353;BME280;71954;47.430;18.920;2024-03-29T09:58:38;99558.28;;;14.84;51.14
82353;BME280;71954;47.430;18.920;2024-03-29T10:01:05;99550.09;;;14.85;51.28
82353;BME280;71954;47.430;18.920;2024-03-29T10:03:31;99550.81;;;14.95;51.89
82353;BME280;71954;47.430;18.920;2024-03-29T10:06:00;99544.53;;;15.13;51.93
82353;BME280;71954;47.430;18.920;2024-03-29T10:08:26;99543.38;;;15.23;51.67
82353;BME280;71954;47.430;18.920;2024-03-29T10:10:54;99532.88;;;15.30;51.67
82353;BME280;71954;47.430;18.920;2024-03-29T10:13:20;99535.72;;;15.44;52.18
82353;BME280;71954;47.430;18.920;2024-03-29T10:15:46;99534.59;;;15.63;50.74
82353;BME280;71954;47.430;18.920;2024-03-29T10:18:16;99528.91;;;15.74;50.55
82353;BME280;71954;47.430;18.920;2024-03-29T10:20:43;99536.28;;;15.88;50.05
82353;BME280;71954;47.430;18.920;2024-03-29T10:23:09;99526.25;;;15.82;50.63
82353;BME280;71954;47.430;18.920;2024-03-29T10:25:34;99517.03;;;15.93;50.63
82353;BME280;71954;47.430;18.920;2024-03-29T10:28:00;99524.22;;;15.68;51.44
82353;BME280;71954;47.430;18.920;2024-03-29T10:30:29;99526.09;;;15.84;52.25
82353;BME280;71954;47.430;18.920;2024-03-29T10:33:00;99520.53;;;15.61;52.68
82353;BME280;71954;47.430;18.920;2024-03-29T10:35:25;99515.38;;;15.76;52.75
82353;BME280;71954;47.430;18.920;2024-03-29T10:37:54;99511.50;;;15.86;53.59
82353;BME280;71954;47.430;18.920;2024-03-29T10:40:24;99521.72;;;15.83;51.86
82353;BME280;71954;47.430;18.920;2024-03-29T10:42:52;99509.84;;;16.02;53.21
82353;BME280;71954;47.430;18.920;2024-03-29T10:45:17;99506.16;;;16.03;52.48
82353;BME280;71954;47.430;18.920;2024-03-29T10:47:43;99496.31;;;15.71;53.50
82353;BME280;71954;47.430;18.920;2024-03-29T10:50:13;99488.78;;;15.82;53.73
82353;BME280;71954;47.430;18.920;2024-03-29T10:52:42;99489.28;;;15.94;53.60
82353;BME280;71954;47.430;18.920;2024-03-29T10:55:12;99493.47;;;15.80;54.20
82353;BME280;71954;47.430;18.920;2024-03-29T10:57:42;99480.56;;;15.92;53.66
82353;BME280;71954;47.430;18.920;2024-03-29T11:00:11;99467.66;;;16.04;53.58
82353;BME280;71954;47.430;18.920;2024-03-29T11:05:49;99450.56;;;16.21;54.24
82353;BME280;71954;47.430;18.920;2024-03-29T11:08:23;99445.81;;;16.39;53.10
82353;BME280;71954;47.430;18.920;2024-03-29T11:10:51;99443.44;;;16.44;53.43
82353;BME280;71954;47.430;18.920;2024-03-29T11:16:05;99431.06;;;16.35;53.30
82353;BME280;71954;47.430;18.920;2024-03-29T11:18:31;99417.00;;;16.41;53.73
82353;BME280;71954;47.430;18.920;2024-03-29T11:20:57;99412.59;;;16.56;53.58
82353;BME280;71954;47.430;18.920;2024-03-29T11:23:24;99407.81;;;16.75;53.25
82353;BME280;71954;47.430;18.920;2024-03-29T11:25:50;99418.44;;;16.91;53.23
82353;BME280;71954;47.430;18.920;2024-03-29T11:28:30;99413.38;;;16.96;53.12
82353;BME280;71954;47.430;18.920;2024-03-29T11:31:07;99402.44;;;17.05;52.83
82353;BME280;71954;47.430;18.920;2024-03-29T11:36:10;99407.59;;;17.30;53.08
82353;BME280;71954;47.430;18.920;2024-03-29T11:38:37;99388.59;;;17.17;52.27
82353;BME280;71954;47.430;18.920;2024-03-29T11:41:07;99393.47;;;17.13;53.15
82353;BME280;71954;47.430;18.920;2024-03-29T11:43:34;99400.50;;;17.14;54.45
82353;BME280;71954;47.430;18.920;2024-03-29T11:46:01;99395.66;;;17.32;53.22
82353;BME280;71954;47.430;18.920;2024-03-29T11:48:29;99389.69;;;17.45;53.29
82353;BME280;71954;47.430;18.920;2024-03-29T11:50:59;99379.00;;;17.60;53.34
82353;BME280;71954;47.430;18.920;2024-03-29T11:53:26;99387.44;;;17.86;52.75
82353;BME280;71954;47.430;18.920;2024-03-29T11:55:57;99380.88;;;18.03;51.60
82353;BME280;71954;47.430;18.920;2024-03-29T11:58:24;99381.63;;;18.12;50.74
82353;BME280;71954;47.430;18.920;2024-03-29T12:00:51;99364.00;;;18.09;50.74
82353;BME280;71954;47.430;18.920;2024-03-29T12:03:17;99364.66;;;18.11;51.46
82353;BME280;71954;47.430;18.920;2024-03-29T12:05:44;99378.75;;;18.13;50.95
82353;BME280;71954;47.430;18.920;2024-03-29T12:08:10;99376.78;;;18.22;50.68
82353;BME280;71954;47.430;18.920;2024-03-29T12:10:37;99367.00;;;18.14;51.04
82353;BME280;71954;47.430;18.920;2024-03-29T12:13:06;99362.78;;;18.26;51.37
82353;BME280;71954;47.430;18.920;2024-03-29T12:15:32;99364.38;;;18.36;50.64
82353;BME280;71954;47.430;18.920;2024-03-29T12:18:00;99350.63;;;18.45;51.20
82353;BME280;71954;47.430;18.920;2024-03-29T12:20:28;99362.03;;;18.47;50.80
82353;BME280;71954;47.430;18.920;2024-03-29T12:22:54;99365.47;;;18.56;50.41
82353;BME280;71954;47.430;18.920;2024-03-29T12:25:20;99364.72;;;18.62;49.94
82353;BME280;71954;47.430;18.920;2024-03-29T12:27:47;99362.53;;;18.72;50.00
82353;BME280;71954;47.430;18.920;2024-03-29T12:30:13;99363.31;;;18.66;49.50
82353;BME280;71954;47.430;18.920;2024-03-29T12:32:40;99356.25;;;18.65;50.26
82353;BME280;71954;47.430;18.920;2024-03-29T12:35:09;99351.97;;;18.70;50.37
82353;BME280;71954;47.430;18.920;2024-03-29T12:37:36;99346.47;;;18.79;50.36
82353;BME280;71954;47.430;18.920;2024-03-29T12:40:02;99352.13;;;18.84;50.58
82353;BME280;71954;47.430;18.920;2024-03-29T12:42:38;99348.47;;;18.91;50.77
82353;BME280;71954;47.430;18.920;2024-03-29T12:45:04;99348.47;;;18.91;49.86
82353;BME280;71954;47.430;18.920;2024-03-29T12:47:31;99343.72;;;18.93;50.11
82353;BME280;71954;47.430;18.920;2024-03-29T12:49:59;99336.94;;;18.97;50.12
82353;BME280;71954;47.430;18.920;2024-03-29T12:52:26;99337.84;;;19.04;49.94
82353;BME280;71954;47.430;18.920;2024-03-29T12:54:52;99345.25;;;19.02;49.92
82353;BME280;71954;47.430;18.920;2024-03-29T12:57:17;99339.63;;;18.97;50.01
82353;BME280;71954;47.430;18.920;2024-03-29T12:59:46;99337.97;;;18.96;50.04
82353;BME280;71954;47.430;18.920;2024-03-29T13:02:12;99329.00;;;18.89;50.31
82353;BME280;71954;47.430;18.920;2024-03-29T13:04:38;99330.03;;;18.88;50.48